createdAt,value
2022-11-27T00:01:37.955Z,97737.38
2022-11-27T00:04:07.787Z,97732.66
2022-11-27T00:06:37.315Z,97735.88
2022-11-27T00:09:09.836Z,97735.03
2022-11-27T00:11:40.032Z,97739.88
2022-11-27T00:14:09.314Z,97727.78
2022-11-27T00:16:38.219Z,97738.50
2022-11-27T00:19:06.954Z,97716.41
2022-11-27T00:21:37.386Z,97740.22
2022-11-27T00:24:08.722Z,97728.97
2022-11-27T00:26:38.477Z,97722.97
2022-11-27T00:29:07.699Z,97723.63
2022-11-27T00:31:38.117Z,97727.66
2022-11-27T00:34:08.774Z,97728.31
2022-11-27T00:36:38.706Z,97724.44
2022-11-27T00:39:08.483Z,97724.97
2022-11-27T00:41:37.796Z,97724.63
2022-11-27T00:44:07.217Z,97710.03
2022-11-27T00:46:36.734Z,97710.56
2022-11-27T00:49:07.435Z,97703.19
2022-11-27T00:51:36.801Z,97713.53
2022-11-27T00:54:05.783Z,97702.47
2022-11-27T00:56:37.985Z,97697.94
2022-11-27T00:59:08.091Z,97690.25
2022-11-27T01:01:39.521Z,97695.28
2022-11-27T01:04:15.583Z,97684.75
2022-11-27T01:06:45.793Z,97686.94
2022-11-27T01:09:14.771Z,97691.44
2022-11-27T01:11:44.987Z,97691.09
2022-11-27T01:14:16.519Z,97676.69
2022-11-27T01:16:46.834Z,97681.69
2022-11-27T01:19:16.277Z,97678.34
2022-11-27T01:21:44.897Z,97665.78
2022-11-27T01:24:16.102Z,97669.50
2022-11-27T01:26:46.589Z,97662.47
2022-11-27T01:29:15.537Z,97672.50
2022-11-27T01:31:43.978Z,97666.44
2022-11-27T01:34:16.569Z,97670.13
2022-11-27T01:36:45.993Z,97663.25
2022-11-27T01:39:17.109Z,97660.69
2022-11-27T01:41:49.744Z,97659.84
2022-11-27T01:44:54.963Z,97667.41
2022-11-27T01:47:31.225Z,97664.84
2022-11-27T01:50:08.126Z,97676.34
2022-11-27T01:52:40.777Z,97664.66
2022-11-27T01:55:13.653Z,97663.09
2022-11-27T01:57:48.676Z,97666.38
2022-11-27T02:00:19.562Z,97667.34
2022-11-27T02:02:49.061Z,97666.97
2022-11-27T02:05:24.294Z,97662.16
2022-11-27T02:07:54.549Z,97653.63
2022-11-27T02:10:24.746Z,97661.97
2022-11-27T02:13:00.571Z,97650.44
2022-11-27T02:15:41.100Z,97653.91
2022-11-27T02:18:18.027Z,97645.19
2022-11-27T02:20:52.652Z,97640.13
2022-11-27T02:23:37.786Z,97643.25
2022-11-27T02:26:24.504Z,97643.53
2022-11-27T02:29:01.383Z,97637.88
2022-11-27T02:31:40.067Z,97647.78
2022-11-27T02:34:18.567Z,97636.06
2022-11-27T02:36:58.734Z,97643.13
2022-11-27T02:39:35.191Z,97626.16
2022-11-27T02:42:10.302Z,97612.63
2022-11-27T02:44:45.337Z,97613.44
2022-11-27T02:47:16.144Z,97613.38
2022-11-27T02:49:46.680Z,97608.97
2022-11-27T02:52:19.202Z,97593.91
2022-11-27T02:54:51.165Z,97593.84
2022-11-27T02:57:21.980Z,97597.19
2022-11-27T02:59:54.970Z,97595.38
2022-11-27T03:02:28.643Z,97600.56
2022-11-27T03:05:00.323Z,97593.56
2022-11-27T03:07:37.489Z,97587.22
2022-11-27T03:10:13.604Z,97594.03
2022-11-27T03:12:42.615Z,97596.66
2022-11-27T03:15:13.839Z,97596.84
2022-11-27T03:17:54.259Z,97586.16
2022-11-27T03:20:26.665Z,97585.53
2022-11-27T03:22:56.553Z,97583.03
2022-11-27T03:25:25.848Z,97583.78
2022-11-27T03:27:58.863Z,97570.81
2022-11-27T03:30:29.293Z,97581.19
2022-11-27T03:32:58.171Z,97576.88
2022-11-27T03:35:28.558Z,97574.06
2022-11-27T03:37:57.759Z,97573.22
2022-11-27T03:40:34.843Z,97569.53
2022-11-27T03:43:09.802Z,97573.09
2022-11-27T03:45:49.495Z,97575.81
2022-11-27T03:48:27.323Z,97581.50
2022-11-27T03:51:07.638Z,97574.34
2022-11-27T03:53:46.199Z,97577.34
2022-11-27T03:56:23.829Z,97582.38
2022-11-27T03:58:57.763Z,97578.69
2022-11-27T04:01:29.545Z,97575.38
2022-11-27T04:03:58.027Z,97583.72
2022-11-27T04:06:27.490Z,97591.44
2022-11-27T04:08:55.944Z,97592.63
2022-11-27T04:11:25.302Z,97592.94
2022-11-27T04:13:53.755Z,97588.75
2022-11-27T04:16:23.084Z,97585.91
2022-11-27T04:18:53.760Z,97575.22
2022-11-27T04:21:22.790Z,97582.91
2022-11-27T04:23:51.249Z,97573.38
2022-11-27T04:26:19.987Z,97561.97
2022-11-27T04:28:49.042Z,97568.50
2022-11-27T04:31:17.626Z,97572.53
2022-11-27T04:33:46.923Z,97564.47
2022-11-27T04:36:16.783Z,97560.13
2022-11-27T04:38:46.994Z,97558.78
2022-11-27T04:41:15.742Z,97548.41
2022-11-27T04:43:44.173Z,97557.75
2022-11-27T04:46:13.137Z,97551.41
2022-11-27T04:48:41.615Z,97552.94
2022-11-27T04:51:10.828Z,97551.59
2022-11-27T04:53:40.944Z,97549.75
2022-11-27T04:56:09.372Z,97549.75
2022-11-27T04:58:38.814Z,97544.09
2022-11-27T05:01:09.667Z,97534.69
2022-11-27T05:03:38.542Z,97541.72
2022-11-27T05:06:08.100Z,97541.06
2022-11-27T05:08:36.573Z,97542.56
2022-11-27T05:11:09.480Z,97552.78
2022-11-27T05:13:38.194Z,97548.94
2022-11-27T05:16:07.785Z,97555.13
2022-11-27T05:18:37.304Z,97566.16
2022-11-27T05:21:07.968Z,97555.97
2022-11-27T05:23:37.379Z,97568.38
2022-11-27T05:26:07.225Z,97567.53
2022-11-27T05:28:36.881Z,97565.50
2022-11-27T05:31:05.394Z,97569.69
2022-11-27T05:33:33.921Z,97556.47
2022-11-27T05:36:03.216Z,97554.13
2022-11-27T05:38:32.011Z,97561.34
2022-11-27T05:41:00.405Z,97554.16
2022-11-27T05:43:30.980Z,97565.69
2022-11-27T05:45:59.396Z,97566.53
2022-11-27T05:48:28.935Z,97556.16
2022-11-27T05:50:57.945Z,97564.19
2022-11-27T05:53:26.401Z,97569.88
2022-11-27T05:55:55.207Z,97563.03
2022-11-27T05:58:24.482Z,97559.50
2022-11-27T06:00:54.275Z,97551.47
2022-11-27T06:03:23.020Z,97559.69
2022-11-27T06:05:51.553Z,97552.31
2022-11-27T06:08:20.887Z,97511.97
2022-11-27T06:10:49.898Z,97543.94
2022-11-27T06:13:19.016Z,97535.41
2022-11-27T06:15:47.409Z,97535.25
2022-11-27T06:18:18.251Z,97507.13
2022-11-27T06:20:52.797Z,97535.53
2022-11-27T06:23:22.377Z,97526.69
2022-11-27T06:25:51.791Z,97536.91
2022-11-27T06:28:20.209Z,97541.59
2022-11-27T06:30:49.116Z,97547.78
2022-11-27T06:33:19.006Z,97550.94
2022-11-27T06:35:47.451Z,97540.59
2022-11-27T06:38:15.799Z,97541.91
2022-11-27T06:40:45.102Z,97544.75
2022-11-27T06:43:13.815Z,97538.91
2022-11-27T06:45:42.554Z,97537.56
2022-11-27T06:48:11.036Z,97545.56
2022-11-27T06:50:41.568Z,97539.03
2022-11-27T06:53:09.967Z,97539.69
2022-11-27T06:55:39.688Z,97524.66
2022-11-27T06:58:08.131Z,97535.72
2022-11-27T07:00:37.798Z,97540.41
2022-11-27T07:03:06.287Z,97536.38
2022-11-27T07:05:35.828Z,97535.38
2022-11-27T07:08:06.665Z,97537.38
2022-11-27T07:10:36.299Z,97543.75
2022-11-27T07:13:05.674Z,97541.22
2022-11-27T07:15:34.523Z,97537.03
2022-11-27T07:18:03.489Z,97536.38
2022-11-27T07:20:31.904Z,97536.38
2022-11-27T07:23:00.883Z,97537.56
2022-11-27T07:25:30.719Z,97536.72
2022-11-27T07:27:59.153Z,97534.06
2022-11-27T07:30:27.565Z,97542.06
2022-11-27T07:32:56.983Z,97543.25
2022-11-27T07:35:25.372Z,97547.13
2022-11-27T07:37:54.675Z,97537.56
2022-11-27T07:40:23.368Z,97547.97
2022-11-27T07:42:53.980Z,97547.44
2022-11-27T07:45:22.514Z,97540.75
2022-11-27T07:47:51.911Z,97542.91
2022-11-27T07:50:20.451Z,97545.28
2022-11-27T07:52:49.774Z,97543.75
2022-11-27T07:55:18.278Z,97536.72
2022-11-27T07:57:47.727Z,97539.06
2022-11-27T08:00:18.885Z,97533.91
2022-11-27T08:02:47.270Z,97529.72
2022-11-27T08:05:16.323Z,97533.41
2022-11-27T08:07:45.020Z,97516.81
2022-11-27T08:10:14.372Z,97497.75
2022-11-27T08:12:42.810Z,97503.59
2022-11-27T08:15:12.489Z,97492.91
2022-11-27T08:17:42.407Z,97496.75
2022-11-27T08:20:11.770Z,97497.59
2022-11-27T08:22:40.726Z,97493.06
2022-11-27T08:25:10.276Z,97492.25
2022-11-27T08:27:39.400Z,97481.84
2022-11-27T08:30:09.380Z,97479.88
2022-11-27T08:32:39.822Z,97479.19
2022-11-27T08:35:11.085Z,97480.03
2022-11-27T08:37:40.274Z,97479.69
2022-11-27T08:40:09.695Z,97478.03
2022-11-27T08:42:38.504Z,97477.38
2022-11-27T08:45:08.034Z,97477.50
2022-11-27T08:47:36.695Z,97476.84
2022-11-27T08:50:06.478Z,97478.88
2022-11-27T08:52:36.283Z,97476.84
2022-11-27T08:55:05.251Z,97475.84
2022-11-27T08:57:33.709Z,97482.53
2022-11-27T09:00:03.142Z,97476.19
2022-11-27T09:02:31.976Z,97480.03
2022-11-27T09:05:02.630Z,97479.03
2022-11-27T09:07:32.096Z,97478.69
2022-11-27T09:10:01.900Z,97467.50
2022-11-27T09:12:30.673Z,97469.16
2022-11-27T09:14:59.411Z,97464.16
2022-11-27T09:17:27.855Z,97466.28
2022-11-27T09:19:57.091Z,97463.97
2022-11-27T09:22:25.990Z,97460.63
2022-11-27T09:24:54.480Z,97449.75
2022-11-27T09:27:24.610Z,97449.41
2022-11-27T09:29:53.049Z,97447.44
2022-11-27T09:32:23.796Z,97443.91
2022-11-27T09:34:52.789Z,97444.72
2022-11-27T09:37:21.597Z,97449.09
2022-11-27T09:39:50.331Z,97451.78
2022-11-27T09:42:37.545Z,97450.25
2022-11-27T09:45:12.928Z,97448.72
2022-11-27T09:47:45.887Z,97432.81
2022-11-27T09:50:18.240Z,97428.78
2022-11-27T09:52:52.135Z,97435.78
2022-11-27T09:55:25.983Z,97437.09
2022-11-27T09:58:02.610Z,97438.28
2022-11-27T10:00:31.178Z,97440.44
2022-11-27T10:03:00.509Z,97436.56
2022-11-27T10:05:39.150Z,97398.47
2022-11-27T10:08:22.660Z,97415.03
2022-11-27T10:11:03.309Z,97413.16
2022-11-27T10:13:49.110Z,97416.31
2022-11-27T10:16:26.972Z,97413.78
2022-11-27T10:18:58.430Z,97418.78
2022-11-27T10:21:38.731Z,97416.44
2022-11-27T10:24:18.655Z,97390.03
2022-11-27T10:26:50.279Z,97406.41
2022-11-27T10:29:37.221Z,97398.50
2022-11-27T10:32:32.998Z,97397.53
2022-11-27T10:35:05.579Z,97387.47
2022-11-27T10:37:41.078Z,97384.09
2022-11-27T10:40:22.005Z,97385.91
2022-11-27T10:42:55.566Z,97381.34
2022-11-27T10:45:35.530Z,97368.44
2022-11-27T10:48:04.794Z,97375.59
2022-11-27T10:50:33.754Z,97367.03
2022-11-27T10:53:06.485Z,97360.97
2022-11-27T10:55:51.711Z,97366.78
2022-11-27T10:58:30.443Z,97369.59
2022-11-27T11:01:07.025Z,97367.88
2022-11-27T11:03:36.624Z,97362.63
2022-11-27T11:06:23.643Z,97358.22
2022-11-27T11:09:03.932Z,97359.41
2022-11-27T11:11:32.844Z,97357.31
2022-11-27T11:14:01.239Z,97353.91
2022-11-27T11:16:35.274Z,97359.41
2022-11-27T11:19:06.243Z,97354.03
2022-11-27T11:21:39.247Z,97354.47
2022-11-27T11:24:13.962Z,97352.44
2022-11-27T11:26:47.449Z,97343.50
2022-11-27T11:29:29.110Z,97336.09
2022-11-27T11:32:04.748Z,97334.34
2022-11-27T11:34:34.043Z,97333.97
2022-11-27T11:37:05.759Z,97312.03
2022-11-27T11:39:36.830Z,97322.97
2022-11-27T11:42:10.942Z,97318.88
2022-11-27T11:44:42.352Z,97327.06
2022-11-27T11:47:19.979Z,97309.63
2022-11-27T11:49:48.518Z,97318.06
2022-11-27T11:52:27.181Z,97323.44
2022-11-27T11:55:01.127Z,97316.94
2022-11-27T11:57:52.998Z,97314.44
2022-11-27T12:00:28.281Z,97305.75
2022-11-27T12:03:17.041Z,97314.25
2022-11-27T12:06:02.649Z,97307.63
2022-11-27T12:08:47.424Z,97309.91
2022-11-27T12:11:18.802Z,97311.41
2022-11-27T12:14:01.811Z,97316.94
2022-11-27T12:16:41.021Z,97313.44
2022-11-27T12:19:29.862Z,97309.72
2022-11-27T12:22:12.307Z,97307.69
2022-11-27T12:24:55.473Z,97300.28
2022-11-27T12:27:34.363Z,97291.38
2022-11-27T12:30:18.043Z,97293.25
2022-11-27T12:33:15.402Z,97294.47
2022-11-27T12:35:53.788Z,97289.25
2022-11-27T12:38:42.070Z,97290.00
2022-11-27T12:41:33.511Z,97284.56
2022-11-27T12:44:02.967Z,97274.66
2022-11-27T12:46:41.670Z,97266.50
2022-11-27T12:49:19.060Z,97270.25
2022-11-27T12:51:54.068Z,97267.97
2022-11-27T12:54:27.700Z,97261.38
2022-11-27T12:57:00.111Z,97251.75
2022-11-27T12:59:34.394Z,97257.69
2022-11-27T13:02:15.104Z,97261.13
2022-11-27T13:04:48.603Z,97254.94
2022-11-27T13:07:24.344Z,97252.88
2022-11-27T13:10:00.487Z,97247.59
2022-11-27T13:12:33.971Z,97246.84
2022-11-27T13:15:07.505Z,97241.00
2022-11-27T13:17:41.514Z,97228.78
2022-11-27T13:20:17.950Z,97226.28
2022-11-27T13:22:49.326Z,97220.41
2022-11-27T13:25:18.343Z,97211.59
2022-11-27T13:27:52.189Z,97200.69
2022-11-27T13:30:23.846Z,97203.69
2022-11-27T13:32:55.310Z,97201.28
2022-11-27T13:35:28.934Z,97192.13
2022-11-27T13:38:06.278Z,97191.56
2022-11-27T13:40:40.463Z,97181.75
2022-11-27T13:43:22.208Z,97179.09
2022-11-27T13:45:52.159Z,97177.81
2022-11-27T13:48:29.202Z,97181.03
2022-11-27T13:50:59.823Z,97174.41
2022-11-27T13:53:34.990Z,97182.53
2022-11-27T13:56:03.948Z,97182.16
2022-11-27T13:58:34.718Z,97180.88
2022-11-27T14:01:16.839Z,97184.47
2022-11-27T14:03:46.974Z,97182.25
2022-11-27T14:06:19.317Z,97189.38
2022-11-27T14:08:56.726Z,97182.59
2022-11-27T14:11:41.256Z,97190.84
2022-11-27T14:14:20.938Z,97184.91
2022-11-27T14:16:57.607Z,97194.63
2022-11-27T14:19:33.839Z,97182.69
2022-11-27T14:22:03.874Z,97185.84
2022-11-27T14:24:41.262Z,97178.59
2022-11-27T14:27:19.072Z,97179.56
2022-11-27T14:29:47.924Z,97183.91
2022-11-27T14:32:18.777Z,97167.06
2022-11-27T14:34:49.069Z,97181.03
2022-11-27T14:37:23.411Z,97174.22
2022-11-27T14:39:53.401Z,97175.78
2022-11-27T14:42:28.147Z,97171.78
2022-11-27T14:45:05.893Z,97172.72
2022-11-27T14:47:36.401Z,97166.53
2022-11-27T14:50:05.274Z,97168.03
2022-11-27T14:52:34.899Z,97166.28
2022-11-27T14:55:05.476Z,97155.78
2022-11-27T14:57:34.458Z,97158.13
2022-11-27T15:00:06.645Z,97160.81
2022-11-27T15:02:35.311Z,97147.19
2022-11-27T15:05:06.167Z,97146.38
2022-11-27T15:07:45.216Z,97140.16
2022-11-27T15:10:36.155Z,97136.47
2022-11-27T15:13:07.528Z,97132.13
2022-11-27T15:15:41.398Z,97136.75
2022-11-27T15:18:15.500Z,97133.88
2022-11-27T15:20:46.535Z,97133.16
2022-11-27T15:23:18.917Z,97127.78
2022-11-27T15:25:52.898Z,97128.59
2022-11-27T15:28:30.678Z,97125.19
2022-11-27T15:30:59.546Z,97117.69
2022-11-27T15:33:30.243Z,97117.22
2022-11-27T15:36:19.225Z,97110.09
2022-11-27T15:38:50.950Z,97104.00
2022-11-27T15:41:24.381Z,97103.34
2022-11-27T15:43:55.088Z,97097.34
2022-11-27T15:46:26.820Z,97091.31
2022-11-27T15:48:56.010Z,97087.81
2022-11-27T15:51:24.564Z,97079.88
2022-11-27T15:53:53.154Z,97076.25
2022-11-27T15:56:23.592Z,97077.66
2022-11-27T15:58:51.979Z,97076.34
2022-11-27T16:01:20.984Z,97077.44
2022-11-27T16:03:49.418Z,97072.53
2022-11-27T16:06:21.371Z,97074.03
2022-11-27T16:08:55.067Z,97072.19
2022-11-27T16:11:26.579Z,97073.13
2022-11-27T16:13:55.497Z,97074.78
2022-11-27T16:16:25.472Z,97070.13
2022-11-27T16:18:58.367Z,97069.59
2022-11-27T16:21:29.828Z,97068.84
2022-11-27T16:24:00.003Z,97071.38
2022-11-27T16:26:30.708Z,97068.00
2022-11-27T16:29:00.210Z,97064.88
2022-11-27T16:31:28.737Z,97065.81
2022-11-27T16:33:57.935Z,97067.38
2022-11-27T16:36:27.465Z,97068.94
2022-11-27T16:38:56.769Z,97064.28
2022-11-27T16:41:26.971Z,97075.78
2022-11-27T16:43:58.884Z,97075.22
2022-11-27T16:46:29.882Z,97064.78
2022-11-27T16:49:01.863Z,97061.81
2022-11-27T16:51:33.406Z,97064.28
2022-11-27T16:54:04.907Z,97058.41
2022-11-27T16:56:35.465Z,97029.09
2022-11-27T16:59:10.429Z,97057.25
2022-11-27T17:01:41.698Z,97039.22
2022-11-27T17:04:18.567Z,97039.78
2022-11-27T17:06:48.088Z,97040.63
2022-11-27T17:09:17.482Z,97036.28
2022-11-27T17:11:49.200Z,97022.22
2022-11-27T17:14:21.012Z,97016.31
2022-11-27T17:16:50.707Z,97000.22
2022-11-27T17:19:19.846Z,96989.50
2022-11-27T17:21:48.764Z,96982.88
2022-11-27T17:24:18.114Z,96971.22
2022-11-27T17:26:48.241Z,96967.38
2022-11-27T17:29:21.417Z,96965.69
2022-11-27T17:31:51.709Z,96967.06
2022-11-27T17:34:20.922Z,96961.41
2022-11-27T17:36:53.558Z,96963.56
2022-11-27T17:39:22.677Z,96955.25
2022-11-27T17:41:51.117Z,96957.00
2022-11-27T17:44:21.411Z,96947.59
2022-11-27T17:46:51.173Z,96945.94
2022-11-27T17:49:22.296Z,96939.38
2022-11-27T17:51:51.891Z,96931.03
2022-11-27T17:54:22.224Z,96924.50
2022-11-27T17:56:51.650Z,96914.81
2022-11-27T17:59:23.334Z,96904.25
2022-11-27T18:01:53.168Z,96905.13
2022-11-27T18:04:23.582Z,96913.41
2022-11-27T18:06:52.086Z,96908.25
2022-11-27T18:09:24.883Z,96893.84
2022-11-27T18:11:55.588Z,96895.22
2022-11-27T18:14:25.478Z,96899.72
2022-11-27T18:16:54.726Z,96897.97
2022-11-27T18:19:23.237Z,96893.34
2022-11-27T18:21:52.627Z,96894.19
2022-11-27T18:24:24.038Z,96902.66
2022-11-27T18:27:08.305Z,96898.88
2022-11-27T18:29:41.196Z,96903.41
2022-11-27T18:32:11.848Z,96898.53
2022-11-27T18:34:42.398Z,96904.19
2022-11-27T18:37:12.625Z,96890.59
2022-11-27T18:39:44.458Z,96892.72
2022-11-27T18:42:15.556Z,96885.97
2022-11-27T18:44:46.203Z,96894.22
2022-11-27T18:47:16.192Z,96894.66
2022-11-27T18:49:48.815Z,96891.25
2022-11-27T18:52:17.820Z,96888.66
2022-11-27T18:54:46.802Z,96879.41
2022-11-27T18:57:15.550Z,96880.63
2022-11-27T18:59:48.624Z,96889.41
2022-11-27T19:02:17.631Z,96889.50
2022-11-27T19:04:46.809Z,96882.28
2022-11-27T19:07:15.878Z,96888.47
2022-11-27T19:09:45.041Z,96850.63
2022-11-27T19:12:14.491Z,96876.66
2022-11-27T19:14:43.326Z,96875.56
2022-11-27T19:17:14.442Z,96865.22
2022-11-27T19:20:04.196Z,96863.44
2022-11-27T19:22:33.167Z,96869.09
2022-11-27T19:25:01.660Z,96866.75
2022-11-27T19:27:30.199Z,96865.78
2022-11-27T19:29:59.976Z,96869.63
2022-11-27T19:32:31.093Z,96855.59
2022-11-27T19:35:05.636Z,96845.81
2022-11-27T19:37:36.980Z,96850.34
2022-11-27T19:40:07.120Z,96835.47
2022-11-27T19:42:35.558Z,96846.47
2022-11-27T19:45:05.300Z,96833.91
2022-11-27T19:47:35.158Z,96831.88
2022-11-27T19:50:04.367Z,96838.16
2022-11-27T19:52:34.887Z,96832.41
2022-11-27T19:55:03.450Z,96828.91
2022-11-27T19:57:32.352Z,96819.47
2022-11-27T20:00:00.802Z,96821.91
2022-11-27T20:02:30.553Z,96814.41
2022-11-27T20:05:01.283Z,96809.59
2022-11-27T20:07:30.505Z,96813.16
2022-11-27T20:09:59.744Z,96814.41
2022-11-27T20:12:29.270Z,96803.16
2022-11-27T20:14:59.641Z,96792.91
2022-11-27T20:17:31.114Z,96801.31
2022-11-27T20:20:01.622Z,96795.59
2022-11-27T20:22:30.146Z,96800.03
2022-11-27T20:25:18.324Z,96791.25
2022-11-27T20:27:47.233Z,96778.50
2022-11-27T20:30:16.275Z,96767.78
2022-11-27T20:32:44.759Z,96766.31
2022-11-27T20:35:15.528Z,96760.25
2022-11-27T20:37:44.443Z,96753.41
2022-11-27T20:40:13.399Z,96730.50
2022-11-27T20:42:42.089Z,96735.59
2022-11-27T20:45:16.194Z,96729.88
2022-11-27T20:47:48.152Z,96735.78
2022-11-27T20:50:18.508Z,96735.88
2022-11-27T20:52:47.086Z,96731.81
2022-11-27T20:55:15.672Z,96723.50
2022-11-27T20:57:44.579Z,96732.09
2022-11-27T21:00:14.830Z,96727.13
2022-11-27T21:02:43.775Z,96718.81
2022-11-27T21:05:13.103Z,96714.97
2022-11-27T21:07:43.924Z,96715.22
2022-11-27T21:10:15.588Z,96716.72
2022-11-27T21:12:44.812Z,96705.81
2022-11-27T21:15:14.319Z,96716.59
2022-11-27T21:17:42.846Z,96694.38
2022-11-27T21:20:13.290Z,96701.19
2022-11-27T21:22:44.516Z,96697.47
2022-11-27T21:25:13.557Z,96696.66
2022-11-27T21:27:42.000Z,96690.47
2022-11-27T21:30:12.818Z,96698.69
2022-11-27T21:32:41.213Z,96693.78
2022-11-27T21:35:10.644Z,96700.53
2022-11-27T21:37:39.070Z,96689.41
2022-11-27T21:40:10.894Z,96685.47
2022-11-27T21:42:44.387Z,96679.28
2022-11-27T21:45:15.298Z,96665.72
2022-11-27T21:47:44.374Z,96667.91
2022-11-27T21:50:14.302Z,96665.50
2022-11-27T21:52:42.927Z,96658.13
2022-11-27T21:55:13.570Z,96618.06
2022-11-27T21:57:42.529Z,96668.00
2022-11-27T22:00:11.465Z,96666.69
2022-11-27T22:02:45.438Z,96671.72
2022-11-27T22:05:14.437Z,96661.13
2022-11-27T22:07:42.997Z,96666.84
2022-11-27T22:10:14.567Z,96656.84
2022-11-27T22:12:43.067Z,96665.94
2022-11-27T22:15:12.809Z,96659.53
2022-11-27T22:17:41.520Z,96660.25
2022-11-27T22:20:11.659Z,96663.66
2022-11-27T22:22:40.249Z,96663.28
2022-11-27T22:25:10.281Z,96661.44
2022-11-27T22:27:40.890Z,96656.47
2022-11-27T22:30:11.177Z,96649.19
2022-11-27T22:32:40.038Z,96638.59
2022-11-27T22:35:09.309Z,96631.78
2022-11-27T22:37:39.232Z,96630.50
2022-11-27T22:40:09.245Z,96622.78
2022-11-27T22:42:38.667Z,96627.72
2022-11-27T22:45:10.262Z,96624.78
2022-11-27T22:47:39.397Z,96614.63
2022-11-27T22:50:08.930Z,96613.69
2022-11-27T22:52:37.391Z,96620.31
2022-11-27T22:55:06.791Z,96613.28
2022-11-27T22:57:35.604Z,96608.97
2022-11-27T23:00:06.043Z,96598.84
2022-11-27T23:02:38.307Z,96599.41
2022-11-27T23:05:07.867Z,96589.00
2022-11-27T23:07:36.979Z,96586.13
2022-11-27T23:10:05.998Z,96585.56
2022-11-27T23:12:35.404Z,96591.16
2022-11-27T23:15:04.041Z,96585.19
2022-11-27T23:17:33.187Z,96572.69
2022-11-27T23:20:02.988Z,96575.19
2022-11-27T23:22:31.746Z,96570.84
2022-11-27T23:25:00.175Z,96571.88
2022-11-27T23:27:30.338Z,96570.91
2022-11-27T23:29:59.008Z,96571.66
2022-11-27T23:32:27.525Z,96564.66
2022-11-27T23:34:56.978Z,96561.72
2022-11-27T23:37:26.898Z,96567.53
2022-11-27T23:39:55.873Z,96567.59
2022-11-27T23:42:24.275Z,96554.78
2022-11-27T23:44:53.146Z,96545.91
2022-11-27T23:47:21.579Z,96550.06
2022-11-27T23:49:49.953Z,96547.22
2022-11-27T23:52:19.229Z,96546.56
2022-11-27T23:54:49.125Z,96542.09
2022-11-27T23:57:17.995Z,96539.06
2022-11-27T23:59:46.964Z,96535.28
